Time;durP1;ratioP1;P1;durP2;ratioP2;P2;SDS_P1;SDS_P2;PMS_P1;PMS_P2;Temp;Humidity;BMP_temperature;BMP_pressure;BME280_temperature;BME280_humidity;BME280_pressure;Samples;Min_cycle;Max_cycle;Signal;HPM_P1;HPM_P2
2022/07/26 00:00:41;;;;;;;3.47;1.47;;;22.80;90.70;;;;;;5046257;28;20483;-49
2022/07/26 00:03:08;;;;;;;2.40;1.20;;;22.80;90.70;;;;;;5045265;28;20475;-49
2022/07/26 00:05:36;;;;;;;2.90;1.80;;;22.70;90.70;;;;;;5045850;28;20513;-48
2022/07/26 00:08:10;;;;;;;5.47;1.90;;;22.80;90.60;;;;;;5044941;28;20932;-48
2022/07/26 00:10:38;;;;;;;2.90;1.63;;;22.70;90.50;;;;;;5042103;28;21074;-48
2022/07/26 00:13:05;;;;;;;2.40;1.53;;;22.70;90.70;;;;;;5044981;28;20479;-48
2022/07/26 00:15:33;;;;;;;3.60;1.70;;;22.70;90.60;;;;;;5039321;28;20538;-48
2022/07/26 00:18:00;;;;;;;3.07;1.70;;;22.70;90.70;;;;;;5043585;28;20487;-48
2022/07/26 00:20:27;;;;;;;3.20;1.70;;;22.70;90.60;;;;;;5042760;28;20491;-48
2022/07/26 00:22:53;;;;;;;6.50;1.87;;;22.70;90.70;;;;;;5046047;28;20506;-49
2022/07/26 00:25:20;;;;;;;2.63;1.50;;;22.70;90.60;;;;;;5018898;28;20964;-50
2022/07/26 00:27:47;;;;;;;2.30;1.60;;;22.70;90.70;;;;;;5042331;28;20727;-49
2022/07/26 00:30:14;;;;;;;3.53;1.50;;;22.80;90.60;;;;;;5046751;28;20522;-48
2022/07/26 00:32:42;;;;;;;3.37;1.70;;;22.70;90.50;;;;;;5046101;28;20857;-48
2022/07/26 00:35:10;;;;;;;2.10;1.60;;;22.70;90.70;;;;;;5043278;28;21133;-48
2022/07/26 00:37:37;;;;;;;5.50;1.90;;;22.80;90.20;;;;;;5050129;28;20515;-48
2022/07/26 00:40:04;;;;;;;3.13;1.70;;;22.80;90.20;;;;;;5059977;28;20513;-48
2022/07/26 00:42:31;;;;;;;2.50;1.80;;;22.80;90.00;;;;;;5040214;28;20913;-48
2022/07/26 00:44:58;;;;;;;7.40;3.27;;;22.80;89.90;;;;;;5061749;28;20759;-48
2022/07/26 00:47:25;;;;;;;2.37;1.80;;;22.70;89.80;;;;;;5044214;28;20483;-48
2022/07/26 00:49:53;;;;;;;4.00;2.30;;;22.70;90.00;;;;;;5037847;28;20472;-49
2022/07/26 00:52:20;;;;;;;5.97;1.97;;;22.70;89.80;;;;;;5036357;28;20484;-49
2022/07/26 00:54:47;;;;;;;2.43;1.73;;;22.60;89.60;;;;;;5037691;28;20561;-48
2022/07/26 00:57:14;;;;;;;4.10;2.20;;;22.60;89.50;;;;;;5038799;28;20829;-48
2022/07/26 00:59:41;;;;;;;3.70;1.70;;;22.60;89.70;;;;;;5030865;28;20472;-48
2022/07/26 01:02:09;;;;;;;3.67;2.50;;;22.60;89.90;;;;;;5040157;28;20558;-48
2022/07/26 01:04:36;;;;;;;3.63;1.70;;;22.60;89.80;;;;;;5038760;28;20480;-48
2022/07/26 01:07:05;;;;;;;4.90;2.00;;;22.60;89.30;;;;;;5040465;28;20487;-49
2022/07/26 01:09:32;;;;;;;3.70;1.77;;;22.60;89.10;;;;;;5040298;28;20491;-49
2022/07/26 01:11:59;;;;;;;9.73;2.67;;;22.60;89.70;;;;;;5032405;28;20491;-48
2022/07/26 01:14:26;;;;;;;5.23;1.97;;;22.60;88.30;;;;;;5045497;28;20545;-49
2022/07/26 01:16:53;;;;;;;3.80;1.53;;;22.50;88.70;;;;;;5038689;28;20515;-49
2022/07/26 01:19:20;;;;;;;3.90;1.70;;;22.50;87.90;;;;;;5038875;28;20549;-48
2022/07/26 01:21:49;;;;;;;54.33;3.50;;;22.50;87.60;;;;;;5028640;28;20539;-48
2022/07/26 01:24:16;;;;;;;3.70;2.17;;;22.50;86.90;;;;;;5042709;28;20478;-53
2022/07/26 01:26:43;;;;;;;5.47;1.90;;;22.50;86.20;;;;;;5044709;28;20468;-53
2022/07/26 01:29:09;;;;;;;5.13;1.80;;;22.50;85.90;;;;;;5035220;28;20788;-53
2022/07/26 01:31:36;;;;;;;3.23;1.73;;;22.50;85.70;;;;;;5044289;28;20568;-53
2022/07/26 01:34:03;;;;;;;2.30;1.70;;;22.40;86.10;;;;;;5037047;28;20487;-53
2022/07/26 01:36:30;;;;;;;3.40;2.10;;;22.40;85.30;;;;;;5036942;28;21053;-53
2022/07/26 01:38:58;;;;;;;4.80;1.80;;;22.40;85.90;;;;;;5037658;28;20973;-53
2022/07/26 01:41:24;;;;;;;3.33;1.90;;;22.40;85.30;;;;;;5039194;28;20491;-53
2022/07/26 01:43:51;;;;;;;4.00;2.33;;;22.40;85.40;;;;;;5039055;28;20480;-55
2022/07/26 01:46:18;;;;;;;2.60;1.83;;;22.40;85.50;;;;;;5039840;28;20541;-53
2022/07/26 01:48:45;;;;;;;3.20;1.80;;;22.40;85.70;;;;;;5035809;28;20475;-53
2022/07/26 01:51:11;;;;;;;3.60;2.13;;;22.40;86.00;;;;;;5038956;28;20475;-53
2022/07/26 01:53:38;;;;;;;3.50;2.47;;;22.20;86.40;;;;;;5039127;28;20549;-53
2022/07/26 01:56:07;;;;;;;3.00;2.07;;;22.20;86.60;;;;;;5039731;28;20488;-53
2022/07/26 01:58:33;;;;;;;6.27;2.67;;;22.10;87.50;;;;;;5040362;28;20487;-53
2022/07/26 02:01:00;;;;;;;2.70;2.13;;;22.00;87.70;;;;;;5041825;28;20561;-53
2022/07/26 02:03:27;;;;;;;3.00;2.33;;;22.00;87.60;;;;;;5037580;28;20500;-53
2022/07/26 02:05:54;;;;;;;10.30;2.80;;;21.90;87.40;;;;;;5039618;28;20475;-53
2022/07/26 02:08:20;;;;;;;5.07;2.40;;;21.90;87.10;;;;;;5033760;28;20503;-54
2022/07/26 02:11:02;;;;;;;5.90;2.40;;;21.90;86.50;;;;;;5038071;28;20514;-53
2022/07/26 02:13:33;;;;;;;5.93;4.10;;;21.80;86.10;;;;;;5043536;28;20491;-53
2022/07/26 02:16:00;;;;;;;4.80;2.20;;;21.80;86.30;;;;;;5038817;28;20541;-53
2022/07/26 02:18:28;;;;;;;8.17;1.77;;;21.80;85.20;;;;;;5038433;28;20843;-53
2022/07/26 02:20:56;;;;;;;6.00;2.90;;;21.80;84.40;;;;;;5039288;28;21059;-53
2022/07/26 02:23:23;;;;;;;4.70;2.50;;;21.70;84.00;;;;;;5032829;28;20542;-52
2022/07/26 02:25:50;;;;;;;7.00;3.03;;;21.70;83.20;;;;;;5039851;28;20543;-53
2022/07/26 02:28:17;;;;;;;2.83;2.53;;;21.60;82.80;;;;;;5038596;28;20544;-53
2022/07/26 02:30:46;;;;;;;3.20;2.63;;;21.60;82.80;;;;;;5042261;28;20479;-53
2022/07/26 02:33:13;;;;;;;4.10;2.57;;;21.50;82.20;;;;;;5040985;28;20481;-53
2022/07/26 02:35:40;;;;;;;5.30;2.23;;;21.60;82.40;;;;;;5042722;28;20483;-53
2022/07/26 02:38:08;;;;;;;5.50;2.23;;;21.50;81.90;;;;;;5042216;28;20471;-53
2022/07/26 02:40:36;;;;;;;4.23;1.57;;;21.50;83.40;;;;;;5041054;28;20483;-53
2022/07/26 02:43:04;;;;;;;4.67;2.20;;;21.50;81.60;;;;;;5036735;28;20491;-53
2022/07/26 02:45:30;;;;;;;3.67;2.40;;;21.50;81.50;;;;;;5057793;28;20478;-53
2022/07/26 02:47:58;;;;;;;2.90;2.10;;;21.40;81.20;;;;;;5057893;28;20488;-53
2022/07/26 02:50:27;;;;;;;2.77;1.87;;;21.40;82.10;;;;;;5037348;28;20499;-53
2022/07/26 02:52:55;;;;;;;3.27;1.90;;;21.40;81.10;;;;;;5042046;28;20531;-53
2022/07/26 02:55:24;;;;;;;11.50;2.07;;;21.40;81.70;;;;;;5057492;28;20484;-53
2022/07/26 02:57:52;;;;;;;4.37;2.43;;;21.40;81.30;;;;;;5042567;28;20483;-53
2022/07/26 03:00:23;;;;;;;5.10;2.27;;;21.20;80.90;;;;;;5041507;28;20487;-53
2022/07/26 03:02:51;;;;;;;8.70;2.00;;;21.20;81.60;;;;;;5042689;28;20482;-53
2022/07/26 03:05:20;;;;;;;3.50;2.47;;;21.10;81.20;;;;;;5044813;28;20563;-53
2022/07/26 03:07:47;;;;;;;6.77;2.23;;;21.10;81.40;;;;;;5035326;28;20484;-53
2022/07/26 03:10:14;;;;;;;4.30;2.00;;;21.00;81.30;;;;;;5039553;28;21044;-53
2022/07/26 03:12:41;;;;;;;3.60;2.37;;;21.00;81.30;;;;;;5044084;28;20472;-53
2022/07/26 03:15:08;;;;;;;3.83;2.40;;;21.00;81.00;;;;;;5039460;28;20475;-53
2022/07/26 03:17:35;;;;;;;8.43;2.97;;;21.00;81.00;;;;;;5040264;28;20479;-53
2022/07/26 03:20:03;;;;;;;5.67;2.10;;;20.90;81.20;;;;;;5045947;28;20997;-53
2022/07/26 03:22:31;;;;;;;5.80;2.67;;;20.80;81.40;;;;;;5040330;28;20968;-52
2022/07/26 03:24:58;;;;;;;7.00;2.73;;;20.70;81.60;;;;;;5036896;28;20544;-53
2022/07/26 03:27:25;;;;;;;5.70;1.93;;;20.70;81.50;;;;;;5036512;28;20479;-53
2022/07/26 03:29:51;;;;;;;3.90;2.63;;;20.70;81.80;;;;;;5037516;28;20552;-54
2022/07/26 03:32:18;;;;;;;2.63;2.03;;;20.50;82.10;;;;;;5040907;28;21427;-53
2022/07/26 03:34:45;;;;;;;6.23;2.37;;;20.40;82.80;;;;;;5054272;28;20558;-53
2022/07/26 03:37:11;;;;;;;5.43;2.00;;;20.30;83.30;;;;;;5063722;28;20476;-55
2022/07/26 03:39:39;;;;;;;3.33;2.00;;;20.30;83.90;;;;;;5040046;28;21010;-53
2022/07/26 03:42:06;;;;;;;5.97;2.20;;;20.10;84.30;;;;;;5041426;28;20476;-53
2022/07/26 03:44:33;;;;;;;4.03;2.33;;;20.10;84.30;;;;;;5039343;28;20479;-53
2022/07/26 03:47:00;;;;;;;11.90;2.00;;;20.10;83.90;;;;;;5035945;28;20938;-53
2022/07/26 03:49:27;;;;;;;4.90;2.30;;;20.20;83.50;;;;;;5061671;28;20481;-53
2022/07/26 03:51:54;;;;;;;5.53;1.97;;;20.30;83.50;;;;;;5046014;28;20475;-54
2022/07/26 03:54:21;;;;;;;5.80;2.13;;;20.30;84.10;;;;;;5039444;28;20566;-53
2022/07/26 03:56:48;;;;;;;5.93;2.10;;;20.30;83.40;;;;;;5044675;28;20471;-53
2022/07/26 03:59:14;;;;;;;7.33;2.13;;;20.10;83.90;;;;;;5044551;28;21005;-53
2022/07/26 04:01:42;;;;;;;5.00;2.00;;;20.00;84.00;;;;;;5012915;28;21035;-53
2022/07/26 04:04:09;;;;;;;5.33;2.20;;;20.00;84.80;;;;;;5047598;28;20487;-53
2022/07/26 04:06:36;;;;;;;6.10;2.17;;;20.00;84.30;;;;;;5037459;28;20479;-53
2022/07/26 04:09:04;;;;;;;5.20;1.77;;;20.10;84.20;;;;;;5050965;28;20475;-53
2022/07/26 04:11:32;;;;;;;3.20;1.90;;;20.00;83.90;;;;;;5038245;28;20487;-53
2022/07/26 04:14:01;;;;;;;6.57;2.37;;;20.00;84.90;;;;;;5034391;28;20490;-53
2022/07/26 04:16:28;;;;;;;3.50;1.50;;;20.00;84.40;;;;;;5041887;28;20550;-53
2022/07/26 04:18:54;;;;;;;6.70;2.13;;;20.00;84.30;;;;;;5041011;28;20818;-53
2022/07/26 04:21:21;;;;;;;3.80;1.97;;;20.00;85.00;;;;;;5039730;28;20962;-53
2022/07/26 04:23:48;;;;;;;2.60;1.97;;;20.00;84.20;;;;;;5039522;28;20490;-53
2022/07/26 04:26:15;;;;;;;5.10;1.90;;;20.10;84.00;;;;;;5040493;28;20518;-53
2022/07/26 04:28:42;;;;;;;3.27;1.83;;;20.10;84.50;;;;;;5040817;28;20501;-53
2022/07/26 04:31:10;;;;;;;3.93;1.60;;;20.20;83.50;;;;;;5037531;28;20534;-53
2022/07/26 04:33:37;;;;;;;3.43;1.50;;;20.20;84.00;;;;;;5039059;28;20487;-53
2022/07/26 04:36:04;;;;;;;3.90;1.80;;;20.20;83.20;;;;;;5038664;28;20483;-53
2022/07/26 04:38:31;;;;;;;3.40;1.80;;;20.20;83.10;;;;;;5040320;28;20605;-52
2022/07/26 04:40:58;;;;;;;3.40;1.30;;;20.20;83.70;;;;;;5038713;28;20463;-53
2022/07/26 04:43:25;;;;;;;3.20;1.97;;;20.20;84.10;;;;;;5040778;28;20537;-53
2022/07/26 04:45:51;;;;;;;2.00;1.40;;;20.10;83.30;;;;;;5042283;28;20495;-52
2022/07/26 04:48:20;;;;;;;3.57;1.40;;;;;;;;;;5038959;28;21276;-53
2022/07/26 04:50:47;;;;;;;2.80;1.93;;;20.00;83.20;;;;;;5045657;28;20484;-53
2022/07/26 04:53:13;;;;;;;4.13;1.83;;;19.90;83.20;;;;;;5039315;28;20537;-52
2022/07/26 04:55:41;;;;;;;4.13;1.33;;;19.90;83.30;;;;;;5040321;28;21286;-52
2022/07/26 04:58:08;;;;;;;5.70;1.93;;;19.90;83.60;;;;;;5032438;28;20486;-53
2022/07/26 05:00:35;;;;;;;2.63;1.60;;;19.80;83.70;;;;;;5047078;28;20484;-53
2022/07/26 05:03:02;;;;;;;2.40;1.50;;;19.70;84.00;;;;;;5039348;28;20527;-53
2022/07/26 05:05:31;;;;;;;3.40;1.57;;;19.70;84.00;;;;;;5032985;28;20494;-52
2022/07/26 05:08:01;;;;;;;2.73;1.90;;;19.70;84.10;;;;;;5032027;28;20537;-52
2022/07/26 05:10:30;;;;;;;5.43;1.53;;;19.70;84.30;;;;;;5047052;28;20541;-52
2022/07/26 05:12:58;;;;;;;1.80;1.10;;;19.70;84.40;;;;;;5038523;28;20490;-53
2022/07/26 05:15:25;;;;;;;3.60;1.33;;;19.70;85.10;;;;;;5038899;28;20482;-53
2022/07/26 05:17:52;;;;;;;2.10;1.80;;;19.60;84.30;;;;;;5039911;28;20493;-53
2022/07/26 05:20:19;;;;;;;2.57;1.20;;;19.60;84.80;;;;;;5040838;28;20474;-52
2022/07/26 05:22:47;;;;;;;2.20;1.83;;;19.70;84.60;;;;;;5041835;28;20484;-52
2022/07/26 05:25:13;;;;;;;2.17;1.43;;;19.70;84.50;;;;;;5043988;28;20882;-52
2022/07/26 05:27:40;;;;;;;4.80;1.50;;;19.80;84.60;;;;;;5037387;28;20918;-53
2022/07/26 05:30:09;;;;;;;3.43;1.77;;;19.80;84.60;;;;;;5039490;28;20483;-52
2022/07/26 05:32:36;;;;;;;9.37;1.83;;;19.80;84.60;;;;;;5028373;28;20836;-52
2022/07/26 05:35:03;;;;;;;7.50;1.67;;;19.80;84.90;;;;;;5039088;28;20841;-53
2022/07/26 05:37:30;;;;;;;2.53;1.83;;;19.80;84.80;;;;;;5043766;28;20549;-52
2022/07/26 05:39:58;;;;;;;6.80;1.70;;;19.80;84.80;;;;;;5040762;28;20702;-51
2022/07/26 05:42:25;;;;;;;2.20;2.00;;;19.80;85.00;;;;;;5040271;28;20484;-52
2022/07/26 05:44:52;;;;;;;3.23;1.73;;;19.80;84.90;;;;;;5038990;28;20582;-52
2022/07/26 05:47:19;;;;;;;2.20;1.80;;;20.00;85.40;;;;;;5039953;28;20853;-52
2022/07/26 05:49:45;;;;;;;6.10;1.70;;;19.90;85.90;;;;;;5039438;28;20531;-51
2022/07/26 05:52:12;;;;;;;4.10;1.80;;;20.00;85.10;;;;;;5039008;28;20508;-52
2022/07/26 05:54:39;;;;;;;2.17;1.53;;;20.00;85.00;;;;;;5042476;28;20479;-52
2022/07/26 05:57:07;;;;;;;3.40;1.57;;;20.00;85.10;;;;;;5036402;28;20511;-52
2022/07/26 05:59:34;;;;;;;2.50;1.53;;;20.00;85.50;;;;;;5042040;28;20981;-52
2022/07/26 06:02:00;;;;;;;3.70;1.47;;;19.90;85.60;;;;;;5040415;28;20562;-51
2022/07/26 06:04:27;;;;;;;2.10;1.70;;;19.80;85.70;;;;;;5043833;28;20896;-52
2022/07/26 06:06:55;;;;;;;5.13;1.67;;;19.90;85.90;;;;;;5033580;28;20494;-52
2022/07/26 06:09:22;;;;;;;12.13;2.10;;;19.90;86.80;;;;;;5044397;28;20487;-52
2022/07/26 06:11:49;;;;;;;5.60;2.07;;;20.00;85.80;;;;;;5044391;28;20542;-52
2022/07/26 06:14:17;;;;;;;4.20;2.20;;;20.10;86.60;;;;;;5040962;28;20490;-53
2022/07/26 06:16:44;;;;;;;2.00;1.43;;;20.10;86.00;;;;;;5036455;28;20480;-52
2022/07/26 06:19:11;;;;;;;4.90;1.80;;;20.20;85.40;;;;;;5048269;28;21205;-51
2022/07/26 06:21:37;;;;;;;2.73;1.50;;;20.30;86.00;;;;;;5041518;28;20480;-52
2022/07/26 06:24:05;;;;;;;3.03;1.53;;;20.40;85.00;;;;;;5039061;28;20484;-52
2022/07/26 06:26:32;;;;;;;3.20;1.63;;;20.60;85.00;;;;;;5040629;28;20871;-52
2022/07/26 06:28:58;;;;;;;3.00;1.50;;;20.70;84.60;;;;;;5033403;28;21051;-52
2022/07/26 06:31:26;;;;;;;7.00;1.53;;;20.80;84.00;;;;;;5055567;28;20482;-51
2022/07/26 06:33:54;;;;;;;2.77;1.60;;;20.90;84.90;;;;;;5039104;28;20486;-53
2022/07/26 06:36:21;;;;;;;7.47;2.73;;;20.90;84.60;;;;;;5019559;28;20522;-52
2022/07/26 06:38:48;;;;;;;5.40;1.83;;;20.90;83.90;;;;;;5019550;28;20498;-53
2022/07/26 06:41:14;;;;;;;6.07;1.83;;;21.00;85.10;;;;;;5019136;28;20491;-51
2022/07/26 06:43:41;;;;;;;4.63;1.93;;;21.20;84.00;;;;;;5013713;28;20513;-52
2022/07/26 06:46:08;;;;;;;4.97;1.67;;;21.50;83.30;;;;;;5011882;28;20535;-52
2022/07/26 06:48:36;;;;;;;3.97;2.00;;;21.60;83.00;;;;;;5019074;28;20952;-52
2022/07/26 06:51:03;;;;;;;4.00;1.80;;;21.70;82.40;;;;;;5018732;28;20491;-52
2022/07/26 06:53:30;;;;;;;6.47;2.20;;;21.60;82.40;;;;;;5016637;28;20490;-53
2022/07/26 06:55:57;;;;;;;3.40;1.63;;;21.60;83.20;;;;;;5018301;28;20492;-52
2022/07/26 06:58:24;;;;;;;2.63;1.60;;;21.70;82.40;;;;;;5020618;28;20495;-52
2022/07/26 07:00:51;;;;;;;4.53;1.70;;;21.80;81.70;;;;;;4970939;28;25787;-52
2022/07/26 07:03:17;;;;;;;6.03;2.53;;;22.00;81.90;;;;;;4991878;28;20551;-52
2022/07/26 07:05:46;;;;;;;7.13;2.50;;;22.00;82.10;;;;;;5016293;28;20532;-51
2022/07/26 07:08:13;;;;;;;3.80;1.90;;;22.10;82.20;;;;;;5007334;28;21147;-51
2022/07/26 07:10:40;;;;;;;3.20;1.90;;;22.30;80.50;;;;;;5012423;28;20493;-51
2022/07/26 07:13:06;;;;;;;3.53;1.50;;;22.40;80.90;;;;;;5022802;28;20514;-52
2022/07/26 07:15:33;;;;;;;5.07;1.57;;;22.40;81.40;;;;;;5010601;28;20590;-52
2022/07/26 07:18:00;;;;;;;6.33;1.60;;;22.50;81.80;;;;;;5010348;28;20752;-51
2022/07/26 07:20:27;;;;;;;3.23;2.23;;;22.50;80.90;;;;;;5007031;28;21187;-51
2022/07/26 07:22:55;;;;;;;8.60;1.40;;;22.40;80.00;;;;;;5006075;28;20978;-51
2022/07/26 07:25:22;;;;;;;3.83;2.30;;;22.40;80.40;;;;;;5008635;28;20544;-52
2022/07/26 07:27:48;;;;;;;6.50;2.50;;;22.40;80.80;;;;;;5008069;28;20522;-52
2022/07/26 07:30:15;;;;;;;5.10;1.30;;;22.60;80.50;;;;;;5007277;28;20557;-52
2022/07/26 07:32:42;;;;;;;3.50;1.87;;;22.80;80.40;;;;;;5006692;28;20489;-51
2022/07/26 07:35:09;;;;;;;12.53;2.00;;;22.90;79.80;;;;;;5007310;28;20487;-52
2022/07/26 07:37:36;;;;;;;5.57;1.90;;;23.00;78.40;;;;;;5008570;28;20487;-51
2022/07/26 07:40:07;;;;;;;2.73;1.67;;;23.00;78.20;;;;;;5008481;28;21107;-53
2022/07/26 07:42:34;;;;;;;4.10;2.30;;;23.10;78.70;;;;;;5006968;28;20757;-52
2022/07/26 07:45:01;;;;;;;4.57;1.53;;;23.00;78.90;;;;;;5005813;28;20677;-50
2022/07/26 07:47:28;;;;;;;3.90;2.10;;;23.00;78.40;;;;;;5006360;28;20523;-52
2022/07/26 07:49:54;;;;;;;5.33;2.00;;;22.90;79.30;;;;;;5003241;28;20611;-52
2022/07/26 07:52:21;;;;;;;6.30;2.67;;;23.00;79.20;;;;;;5011024;28;20521;-51
2022/07/26 07:54:48;;;;;;;3.57;1.83;;;23.10;78.60;;;;;;5007047;28;20990;-51
2022/07/26 07:57:16;;;;;;;4.10;2.10;;;23.20;78.70;;;;;;5008746;28;20487;-52
2022/07/26 07:59:43;;;;;;;3.00;1.60;;;23.20;78.80;;;;;;5011048;28;26252;-51
2022/07/26 08:02:11;;;;;;;4.53;2.30;;;23.40;77.80;;;;;;5011279;28;20522;-52
2022/07/26 08:04:38;;;;;;;4.53;1.80;;;23.50;78.10;;;;;;5023829;28;20503;-51
2022/07/26 08:07:05;;;;;;;4.33;1.83;;;23.60;76.80;;;;;;5008053;28;20584;-54
2022/07/26 08:09:32;;;;;;;2.37;1.33;;;23.70;78.00;;;;;;5008361;28;20529;-52
2022/07/26 08:11:59;;;;;;;2.73;2.10;;;23.80;76.90;;;;;;5011080;28;20495;-52
2022/07/26 08:14:27;;;;;;;6.90;1.73;;;23.80;77.30;;;;;;5007520;28;21006;-50
2022/07/26 08:16:53;;;;;;;4.10;2.20;;;23.80;76.40;;;;;;5007204;28;21849;-53
2022/07/26 08:19:20;;;;;;;3.13;2.17;;;23.60;76.70;;;;;;5008935;28;21077;-51
2022/07/26 08:21:47;;;;;;;6.57;1.97;;;23.60;77.90;;;;;;5007950;28;20598;-52
2022/07/26 08:24:14;;;;;;;2.30;1.93;;;23.70;76.70;;;;;;5005618;28;20516;-52
2022/07/26 08:26:40;;;;;;;2.80;1.60;;;23.60;76.80;;;;;;5005048;28;20615;-52
2022/07/26 08:29:07;;;;;;;7.70;2.00;;;23.60;76.50;;;;;;5009203;28;20752;-52
2022/07/26 08:31:35;;;;;;;4.73;1.80;;;23.60;77.40;;;;;;5002789;28;20523;-52
2022/07/26 08:34:02;;;;;;;6.23;1.50;;;23.80;76.40;;;;;;5007249;28;20593;-53
2022/07/26 08:36:28;;;;;;;3.47;1.87;;;24.10;75.10;;;;;;4999647;28;20515;-52
2022/07/26 08:38:55;;;;;;;2.60;1.70;;;24.20;75.60;;;;;;5005806;28;20528;-52
2022/07/26 08:41:22;;;;;;;4.33;2.07;;;24.00;75.70;;;;;;5010258;28;21035;-53
2022/07/26 08:43:49;;;;;;;7.53;2.50;;;24.30;75.40;;;;;;5008210;28;20959;-51
2022/07/26 08:46:16;;;;;;;4.17;1.63;;;24.20;75.50;;;;;;5008534;28;21999;-51
2022/07/26 08:48:44;;;;;;;9.60;1.90;;;24.20;74.90;;;;;;5002397;28;20561;-52
2022/07/26 08:51:11;;;;;;;3.27;1.87;;;24.30;75.40;;;;;;4999162;28;20499;-51
2022/07/26 08:53:39;;;;;;;4.27;1.97;;;24.60;75.10;;;;;;5002977;28;20588;-52
2022/07/26 08:56:06;;;;;;;4.73;1.90;;;24.40;74.10;;;;;;4998610;28;21060;-51
2022/07/26 08:58:35;;;;;;;2.20;1.40;;;24.50;74.80;;;;;;4999567;28;20551;-53
2022/07/26 09:01:06;;;;;;;3.17;2.00;;;24.40;73.40;;;;;;5012747;28;21503;-52
2022/07/26 09:03:36;;;;;;;2.50;1.80;;;24.80;74.50;;;;;;5005208;28;21024;-51
2022/07/26 09:06:13;;;;;;;8.40;4.20;;;25.10;74.00;;;;;;4991092;28;20502;-51
2022/07/26 09:08:40;;;;;;;2.90;1.60;;;25.20;73.00;;;;;;4994433;28;21062;-53
2022/07/26 09:11:32;;;;;;;4.80;1.90;;;25.10;71.40;;;;;;5027202;28;20516;-52
2022/07/26 09:14:00;;;;;;;2.97;1.70;;;25.10;72.10;;;;;;4998466;28;20479;-54
2022/07/26 09:16:28;;;;;;;6.33;2.03;;;25.10;72.40;;;;;;5007309;28;20527;-53
2022/07/26 09:18:56;;;;;;;6.33;1.87;;;24.90;72.20;;;;;;5003077;28;20575;-54
2022/07/26 09:21:32;;;;;;;2.93;1.47;;;24.80;71.80;;;;;;5024392;28;20486;-52
2022/07/26 09:23:59;;;;;;;5.10;2.10;;;24.70;72.90;;;;;;5000005;28;20491;-52
2022/07/26 09:26:26;;;;;;;2.40;1.83;;;24.80;71.90;;;;;;5007045;28;21086;-53
2022/07/26 09:29:03;;;;;;;7.57;1.50;;;24.90;71.90;;;;;;5006309;28;20985;-53
2022/07/26 09:31:30;;;;;;;2.47;1.90;;;24.80;71.50;;;;;;5022616;28;21088;-52
2022/07/26 09:33:57;;;;;;;5.20;2.17;;;24.90;71.30;;;;;;5027655;28;20542;-52
2022/07/26 09:36:24;;;;;;;6.57;3.20;;;24.90;71.80;;;;;;5006221;28;20495;-52
2022/07/26 09:38:54;;;;;;;4.83;2.00;;;24.80;71.60;;;;;;5011781;28;21038;-53
2022/07/26 09:41:23;;;;;;;6.90;2.70;;;24.60;71.40;;;;;;5010953;28;20479;-53
2022/07/26 09:43:50;;;;;;;4.50;2.77;;;24.70;71.70;;;;;;5012337;28;20536;-52
2022/07/26 09:46:17;;;;;;;2.87;2.27;;;25.00;73.30;;;;;;5004533;28;20523;-52
2022/07/26 09:48:44;;;;;;;8.37;2.30;;;25.40;70.80;;;;;;5018817;28;21934;-53
2022/07/26 09:51:11;;;;;;;3.80;2.30;;;25.70;71.80;;;;;;5007554;28;20746;-52
2022/07/26 09:53:42;;;;;;;4.20;2.10;;;25.70;69.80;;;;;;5006761;28;20972;-52
2022/07/26 09:56:10;;;;;;;3.43;1.60;;;25.70;68.80;;;;;;5010401;28;20487;-53
2022/07/26 09:58:37;;;;;;;3.23;2.00;;;25.50;68.90;;;;;;5009046;28;20510;-53
2022/07/26 10:01:06;;;;;;;4.27;1.90;;;25.40;69.20;;;;;;5007371;28;20491;-52
2022/07/26 10:03:32;;;;;;;4.00;2.23;;;25.70;71.50;;;;;;5028135;28;20598;-51
2022/07/26 10:06:00;;;;;;;2.40;1.70;;;25.70;69.30;;;;;;5009733;28;20523;-53
2022/07/26 10:08:28;;;;;;;4.60;2.23;;;25.70;70.20;;;;;;5032606;28;20731;-52
2022/07/26 10:11:03;;;;;;;4.93;1.80;;;26.20;69.30;;;;;;5008151;28;20590;-51
2022/07/26 10:13:31;;;;;;;3.57;1.80;;;26.50;68.50;;;;;;5004529;28;22389;-50
2022/07/26 10:15:58;;;;;;;3.37;1.90;;;26.90;68.20;;;;;;5003583;28;20502;-52
2022/07/26 10:18:46;;;;;;;5.93;1.60;;;26.90;67.30;;;;;;5006203;28;20592;-52
2022/07/26 10:21:23;;;;;;;6.03;2.23;;;26.60;66.60;;;;;;5009449;28;20472;-52
2022/07/26 10:23:51;;;;;;;4.97;2.10;;;26.50;67.50;;;;;;5005481;28;20477;-52
2022/07/26 10:26:39;;;;;;;6.70;1.60;;;26.50;68.40;;;;;;5003880;28;27313;-51
2022/07/26 10:29:22;;;;;;;3.60;1.93;;;26.50;67.30;;;;;;5027042;28;20479;-52
2022/07/26 10:31:50;;;;;;;2.77;1.87;;;26.70;67.60;;;;;;5028628;28;20496;-52
2022/07/26 10:34:31;;;;;;;2.10;1.63;;;26.60;65.40;;;;;;5007420;28;20656;-53
2022/07/26 10:36:59;;;;;;;2.30;1.60;;;26.60;65.90;;;;;;4994031;28;21104;-53
2022/07/26 10:39:26;;;;;;;3.80;1.90;;;26.50;64.70;;;;;;5006955;28;20487;-53
2022/07/26 10:41:59;;;;;;;2.50;1.77;;;26.30;64.30;;;;;;5008689;28;21067;-53
2022/07/26 10:44:28;;;;;;;4.20;1.73;;;26.50;66.30;;;;;;5005443;28;20569;-53
2022/07/26 10:47:01;;;;;;;3.50;2.10;;;26.60;66.20;;;;;;4995486;28;20484;-53
2022/07/26 10:49:36;;;;;;;3.90;1.67;;;26.60;66.90;;;;;;5009125;28;20593;-53
2022/07/26 10:52:16;;;;;;;2.87;1.33;;;27.30;66.20;;;;;;5007056;28;20549;-53
2022/07/26 10:55:13;;;;;;;3.00;1.80;;;27.70;64.70;;;;;;5009110;28;20580;-53
2022/07/26 10:57:42;;;;;;;2.10;1.67;;;27.80;63.40;;;;;;5007836;28;20919;-53
2022/07/26 11:00:25;;;;;;;2.30;1.53;;;27.80;63.90;;;;;;5004947;28;20494;-53
2022/07/26 11:02:58;;;;;;;3.53;1.50;;;28.00;64.30;;;;;;5009324;28;21574;-53
2022/07/26 11:05:29;;;;;;;4.03;1.50;;;28.20;62.90;;;;;;5007251;28;20472;-52
2022/07/26 11:08:03;;;;;;;2.20;1.47;;;28.30;63.10;;;;;;5010547;28;20499;-52
2022/07/26 11:10:32;;;;;;;3.20;1.70;;;;;;;;;;5009410;28;21032;-52
2022/07/26 11:13:03;;;;;;;3.23;1.50;;;28.10;61.70;;;;;;5003216;28;21487;-52
2022/07/26 11:15:32;;;;;;;2.20;1.57;;;28.00;62.20;;;;;;5028161;28;20552;-52
2022/07/26 11:18:10;;;;;;;4.03;1.37;;;27.50;63.10;;;;;;5008534;28;20496;-53
2022/07/26 11:20:37;;;;;;;3.40;1.90;;;27.30;63.50;;;;;;4997934;28;20636;-54
2022/07/26 11:23:04;;;;;;;3.30;1.73;;;27.20;63.60;;;;;;5009811;28;20506;-52
2022/07/26 11:25:31;;;;;;;4.70;2.00;;;27.00;63.60;;;;;;5025793;28;21393;-52
2022/07/26 11:28:02;;;;;;;3.70;1.90;;;26.90;63.40;;;;;;5011631;28;20508;-53
2022/07/26 11:30:31;;;;;;;2.00;1.37;;;27.10;64.60;;;;;;5005274;28;20597;-53
2022/07/26 11:32:58;;;;;;;2.17;1.80;;;27.30;62.20;;;;;;5021321;28;20491;-51
2022/07/26 11:35:26;;;;;;;3.97;1.63;;;27.50;62.00;;;;;;5003832;28;20606;-53
2022/07/26 11:37:55;;;;;;;5.50;1.70;;;27.70;62.60;;;;;;5035568;28;20483;-52
2022/07/26 11:40:43;;;;;;;2.57;1.40;;;27.90;62.10;;;;;;4995137;28;20498;-52
2022/07/26 11:43:11;;;;;;;5.40;1.37;;;27.80;61.20;;;;;;5000289;28;20492;-55
2022/07/26 11:45:43;;;;;;;2.90;1.27;;;27.80;62.20;;;;;;5006094;28;20493;-53
2022/07/26 11:48:13;;;;;;;2.13;1.37;;;27.80;61.40;;;;;;5016693;28;20918;-53
2022/07/26 11:50:40;;;;;;;3.67;1.77;;;27.60;62.30;;;;;;4999121;28;21006;-53
2022/07/26 11:53:21;;;;;;;2.53;2.10;;;27.50;62.80;;;;;;5024556;28;20796;-53
2022/07/26 11:55:47;;;;;;;8.03;2.47;;;27.30;63.20;;;;;;5001622;28;20901;-52
2022/07/26 11:58:15;;;;;;;2.13;1.47;;;27.30;62.60;;;;;;5029471;28;20552;-52
2022/07/26 12:00:43;;;;;;;4.10;2.03;;;27.20;63.60;;;;;;5000842;28;21940;-53
2022/07/26 12:03:11;;;;;;;6.60;2.50;;;27.20;63.20;;;;;;4997813;28;20527;-52
2022/07/26 12:05:40;;;;;;;4.13;1.90;;;27.30;63.40;;;;;;5001893;28;21308;-52
2022/07/26 12:08:07;;;;;;;3.10;1.57;;;27.20;62.20;;;;;;5005774;28;21148;-53
2022/07/26 12:10:34;;;;;;;4.23;2.50;;;27.20;62.20;;;;;;5006582;28;21058;-53
2022/07/26 12:13:10;;;;;;;2.20;1.60;;;27.20;62.80;;;;;;5006692;28;20563;-53
2022/07/26 12:15:50;;;;;;;4.13;1.40;;;27.30;62.70;;;;;;5003866;28;20518;-52
2022/07/26 12:18:24;;;;;;;3.70;2.00;;;27.30;62.00;;;;;;4999959;28;20490;-53
2022/07/26 12:20:59;;;;;;;3.23;1.67;;;27.30;62.00;;;;;;5005897;28;20602;-53
2022/07/26 12:23:26;;;;;;;2.67;1.60;;;27.60;63.50;;;;;;5004789;28;20966;-53
2022/07/26 12:25:53;;;;;;;3.37;1.60;;;27.60;61.30;;;;;;5004977;28;20500;-52
2022/07/26 12:28:41;;;;;;;4.77;1.47;;;28.10;61.80;;;;;;5005677;28;20938;-52
2022/07/26 12:31:23;;;;;;;2.97;1.30;;;;;;;;;;4995599;28;21267;-53
2022/07/26 12:33:51;;;;;;;2.40;1.40;;;27.90;59.40;;;;;;5005357;28;20564;-52
2022/07/26 12:36:19;;;;;;;2.33;1.30;;;27.80;59.50;;;;;;4999218;28;20534;-53
2022/07/26 12:38:46;;;;;;;2.10;1.57;;;28.10;60.50;;;;;;5010347;28;20489;-53
2022/07/26 12:41:30;;;;;;;2.53;1.57;;;28.20;60.00;;;;;;5002510;28;20493;-53
2022/07/26 12:43:58;;;;;;;2.47;1.20;;;28.30;59.60;;;;;;5020600;28;20495;-52
2022/07/26 12:46:26;;;;;;;2.63;1.83;;;28.50;60.10;;;;;;5006866;28;20864;-51
2022/07/26 12:48:52;;;;;;;2.20;1.30;;;28.50;58.40;;;;;;5005616;28;20493;-53
2022/07/26 12:51:19;;;;;;;2.53;1.47;;;28.40;59.10;;;;;;5004347;28;20610;-52
2022/07/26 12:53:46;;;;;;;1.90;1.17;;;28.30;59.50;;;;;;5002445;28;20642;-53